createdAt,value
2019-06-20T20:56:03.402Z,8.5
2019-06-20T21:07:57.457Z,9.1
2019-06-20T21:08:11.294Z,9.2
2019-06-20T21:10:29.941Z,8.9
2019-06-20T21:11:42.821Z,10.7
2019-06-20T21:13:09.582Z,10.7
2019-06-20T21:15:41.399Z,10.4
2019-06-20T21:16:41.517Z,10.1
2019-06-20T21:17:41.597Z,10.6
2019-06-20T21:18:41.696Z,10.5
2019-06-20T21:19:41.788Z,11.5
2019-06-20T21:20:41.918Z,12.2
2019-06-20T21:21:42.134Z,11.3
2019-06-20T22:30:48.418Z,25.799999
2019-06-20T22:31:48.498Z,28.1
2019-06-20T22:41:49.319Z,29.4
2019-06-20T22:42:49.435Z,29.4
2019-06-20T22:43:49.539Z,29.4
2019-06-20T22:50:50.270Z,30
2019-06-20T22:51:50.334Z,29.5
2019-06-20T22:52:50.414Z,29.5
2019-06-20T22:53:51.315Z,28.4
2019-06-20T22:54:50.557Z,31
2019-06-20T22:55:50.653Z,29.299999
2019-06-20T23:01:51.212Z,28.200001
2019-06-20T23:02:51.369Z,28.4
2019-06-20T23:09:51.610Z,31.799999
2019-06-20T23:10:51.749Z,31.5
2019-06-20T23:11:51.851Z,31.5
2019-06-20T23:12:51.968Z,31.5
2019-06-20T23:13:52.063Z,29.4
2019-06-20T23:22:52.952Z,32.900002
2019-06-20T23:23:53.055Z,36
2019-06-20T23:24:53.232Z,34.299999
2019-06-20T23:25:53.124Z,34
2019-06-20T23:26:53.201Z,35.700001
2019-06-20T23:27:53.273Z,33
2019-06-20T23:28:53.358Z,32.599998
2019-06-20T23:29:53.553Z,33.599998
2019-06-20T23:30:53.454Z,33.900002
2019-06-20T23:31:53.566Z,33.700001
2019-06-20T23:32:53.669Z,33.299999
2019-06-20T23:33:53.746Z,34.700001
2019-06-20T23:34:53.832Z,34.799999
2019-06-20T23:35:53.935Z,35.400002
2019-06-20T23:39:54.352Z,32.5
2019-06-20T23:40:54.467Z,32.599998
2019-06-20T23:41:54.561Z,34.599998
2019-06-20T23:42:54.628Z,35.200001
2019-06-20T23:45:54.942Z,33.799999
2019-06-20T23:46:55.017Z,34.400002
2019-06-20T23:47:55.080Z,36.400002
2019-06-20T23:48:55.191Z,34.099998
2019-06-20T23:58:56.301Z,36.299999
2019-06-20T23:59:56.220Z,33.099998
